Terminal Aerodrome Forecast
Issued by NWS

Home | Current Version | Previous Version | Text Only | Print | Product List | Glossary Off
Versions: 1 2 3 4 5 6 7 8 9 10 11 12 13 14 15 16 17 18

814
FTUS41 KCLE 202343
TAFFDY
TAF
KFDY 202343Z 2100/2124 10010KT P6SM BKN150
     FM210700 16008KT 6SM -SHRA VCTS BKN060CB
      TEMPO 2109/2112 4SM -TSRA OVC035CB
     FM211400 20013KT 6SM -RA BR BKN025
     FM211600 21015G22KT P6SM BKN025
     FM211900 23015G25KT P6SM BKN050=

USA.gov is the U.S. government's official web portal to all federal, state and local government web resources and services.